sensor_id;sensor_type;location;lat;lon;timestamp;temperature;humidity
3925;DHT22;1977;52.274;10.518;2023-06-01T18:03:22;17.70;95.70
3925;DHT22;1977;52.274;10.518;2023-06-01T18:05:49;17.50;95.90
3925;DHT22;1977;52.274;10.518;2023-06-01T18:08:16;17.50;95.60
3925;DHT22;1977;52.274;10.518;2023-06-01T18:10:43;17.50;95.60
3925;DHT22;1977;52.274;10.518;2023-06-01T18:13:09;17.50;95.70
3925;DHT22;1977;52.274;10.518;2023-06-01T18:15:36;17.50;95.50
3925;DHT22;1977;52.274;10.518;2023-06-01T18:18:03;17.40;95.50
3925;DHT22;1977;52.274;10.518;2023-06-01T18:20:31;17.50;95.60
3925;DHT22;1977;52.274;10.518;2023-06-01T18:22:58;17.60;95.60
3925;DHT22;1977;52.274;10.518;2023-06-01T18:25:25;17.80;95.80
3925;DHT22;1977;52.274;10.518;2023-06-01T18:27:52;17.40;95.70
3925;DHT22;1977;52.274;10.518;2023-06-01T18:30:18;17.50;95.90
3925;DHT22;1977;52.274;10.518;2023-06-01T18:32:45;17.70;95.90
3925;DHT22;1977;52.274;10.518;2023-06-01T18:35:12;17.40;95.90
3925;DHT22;1977;52.274;10.518;2023-06-01T18:37:40;17.40;96.00
3925;DHT22;1977;52.274;10.518;2023-06-01T18:40:08;17.50;95.90
3925;DHT22;1977;52.274;10.518;2023-06-01T18:42:35;17.50;95.70
3925;DHT22;1977;52.274;10.518;2023-06-01T18:45:03;17.60;95.70
3925;DHT22;1977;52.274;10.518;2023-06-01T18:47:30;17.70;95.50
3925;DHT22;1977;52.274;10.518;2023-06-01T18:49:57;17.60;95.60
3925;DHT22;1977;52.274;10.518;2023-06-01T18:52:24;17.60;95.70
3925;DHT22;1977;52.274;10.518;2023-06-01T18:54:52;17.50;95.70
3925;DHT22;1977;52.274;10.518;2023-06-01T18:57:20;17.60;95.80
3925;DHT22;1977;52.274;10.518;2023-06-01T18:59:47;17.70;95.70
3925;DHT22;1977;52.274;10.518;2023-06-01T19:02:15;17.70;95.50
3925;DHT22;1977;52.274;10.518;2023-06-01T19:04:42;17.70;95.60
3925;DHT22;1977;52.274;10.518;2023-06-01T19:07:20;17.70;95.60
3925;DHT22;1977;52.274;10.518;2023-06-01T19:09:49;17.70;95.60
3925;DHT22;1977;52.274;10.518;2023-06-01T19:12:20;17.70;95.70
3925;DHT22;1977;52.274;10.518;2023-06-01T19:14:47;17.60;95.50
3925;DHT22;1977;52.274;10.518;2023-06-01T19:17:28;17.60;95.50
3925;DHT22;1977;52.274;10.518;2023-06-01T19:20:04;17.50;95.20
3925;DHT22;1977;52.274;10.518;2023-06-01T19:22:31;17.70;95.40
3925;DHT22;1977;52.274;10.518;2023-06-01T19:25:01;17.70;95.40
3925;DHT22;1977;52.274;10.518;2023-06-01T19:27:32;17.60;95.40
3925;DHT22;1977;52.274;10.518;2023-06-01T19:29:59;17.50;95.50
3925;DHT22;1977;52.274;10.518;2023-06-01T19:32:25;17.80;95.70
3925;DHT22;1977;52.274;10.518;2023-06-01T19:34:52;17.60;95.40
3925;DHT22;1977;52.274;10.518;2023-06-01T19:37:19;17.50;95.40
3925;DHT22;1977;52.274;10.518;2023-06-01T19:39:46;17.50;95.40
3925;DHT22;1977;52.274;10.518;2023-06-01T19:42:31;17.40;95.40
3925;DHT22;1977;52.274;10.518;2023-06-01T19:45:00;17.30;95.50
3925;DHT22;1977;52.274;10.518;2023-06-01T19:50:38;17.10;95.80
3925;DHT22;1977;52.274;10.518;2023-06-01T19:53:08;17.00;95.90
3925;DHT22;1977;52.274;10.518;2023-06-01T19:55:39;17.00;95.80
3925;DHT22;1977;52.274;10.518;2023-06-01T19:58:08;16.90;96.00
3925;DHT22;1977;52.274;10.518;2023-06-01T20:00:37;16.90;96.10
3925;DHT22;1977;52.274;10.518;2023-06-01T20:03:07;17.10;96.30
3925;DHT22;1977;52.274;10.518;2023-06-01T20:05:37;16.70;96.30
3925;DHT22;1977;52.274;10.518;2023-06-01T20:08:07;16.90;96.40
3925;DHT22;1977;52.274;10.518;2023-06-01T20:10:34;17.10;96.40
3925;DHT22;1977;52.274;10.518;2023-06-01T20:13:01;16.90;96.40
3925;DHT22;1977;52.274;10.518;2023-06-01T20:15:30;16.90;96.10
3925;DHT22;1977;52.274;10.518;2023-06-01T20:17:59;17.10;96.20
3925;DHT22;1977;52.274;10.518;2023-06-01T20:20:28;17.00;96.10
3925;DHT22;1977;52.274;10.518;2023-06-01T20:23:03;16.90;96.20
3925;DHT22;1977;52.274;10.518;2023-06-01T20:25:31;17.20;96.40
3925;DHT22;1977;52.274;10.518;2023-06-01T20:28:03;16.70;96.30
3925;DHT22;1977;52.274;10.518;2023-06-01T20:33:33;16.60;96.20
3925;DHT22;1977;52.274;10.518;2023-06-01T20:36:04;16.60;96.00
3925;DHT22;1977;52.274;10.518;2023-06-01T20:38:32;16.60;95.60
3925;DHT22;1977;52.274;10.518;2023-06-01T20:41:06;16.60;95.40
3925;DHT22;1977;52.274;10.518;2023-06-01T20:43:35;16.50;95.70
3925;DHT22;1977;52.274;10.518;2023-06-01T20:46:04;16.60;95.50
3925;DHT22;1977;52.274;10.518;2023-06-01T20:48:40;16.50;95.40
3925;DHT22;1977;52.274;10.518;2023-06-01T20:53:52;16.50;94.90
3925;DHT22;1977;52.274;10.518;2023-06-01T20:56:24;16.50;94.90
3925;DHT22;1977;52.274;10.518;2023-06-01T20:58:53;16.40;94.90
3925;DHT22;1977;52.274;10.518;2023-06-01T21:01:23;16.30;95.00
3925;DHT22;1977;52.274;10.518;2023-06-01T21:03:52;16.30;95.00
3925;DHT22;1977;52.274;10.518;2023-06-01T23:31:15;15.20;93.10
3925;DHT22;1977;52.274;10.518;2023-06-01T23:33:41;15.00;93.10
3925;DHT22;1977;52.274;10.518;2023-06-01T23:36:08;15.00;93.40
3925;DHT22;1977;52.274;10.518;2023-06-01T23:38:35;15.00;93.40
3925;DHT22;1977;52.274;10.518;2023-06-01T23:41:03;14.90;93.30
3925;DHT22;1977;52.274;10.518;2023-06-01T23:43:30;14.90;93.50
3925;DHT22;1977;52.274;10.518;2023-06-01T23:45:57;14.90;93.50
3925;DHT22;1977;52.274;10.518;2023-06-01T23:48:26;14.80;93.60
3925;DHT22;1977;52.274;10.518;2023-06-01T23:50:53;14.70;93.50
3925;DHT22;1977;52.274;10.518;2023-06-01T23:53:20;14.60;93.30
3925;DHT22;1977;52.274;10.518;2023-06-01T23:55:47;14.60;93.30
3925;DHT22;1977;52.274;10.518;2023-06-01T23:58:14;14.60;93.50
